• images/banner/banner1.jpg
  • images/banner/banner2.jpg

Team Member Login

Aviation Weather

[source: ADDS]
METAR
EGVN 161750Z 26009KT CAVOK 22/13 Q1012 NOSIG =
TAF
TAF EGVN 161630Z 1618/1718 24008KT 9999 FEW045 PROB30 TEMPO 1618/1620 7000 SHRA SCT040CB =